createdAt,value
2023-03-20T00:01:13.998Z,100451.63
2023-03-20T00:03:40.588Z,100451.22
2023-03-20T00:06:21.308Z,100444.53
2023-03-20T00:08:49.578Z,100440.50
2023-03-20T00:11:33.205Z,100437.88
2023-03-20T00:14:02.647Z,100426.69
2023-03-20T00:16:35.667Z,100424.66
2023-03-20T00:19:03.410Z,100422.47
2023-03-20T00:21:30.916Z,100411.97
2023-03-20T00:23:58.721Z,100401.50
2023-03-20T00:26:28.385Z,100391.72
2023-03-20T00:28:56.431Z,100400.69
2023-03-20T00:31:37.891Z,100392.94
2023-03-20T00:34:14.128Z,100386.22
2023-03-20T00:36:41.184Z,100388.84
2023-03-20T00:39:07.924Z,100391.44
2023-03-20T00:42:12.939Z,100391.50
2023-03-20T00:44:47.601Z,100384.84
2023-03-20T00:47:17.973Z,100378.16
2023-03-20T00:49:45.877Z,100371.03
2023-03-20T00:52:15.236Z,100371.91
2023-03-20T00:54:41.804Z,100359.13
2023-03-20T00:57:14.763Z,100349.66
2023-03-20T00:59:54.500Z,100332.59
2023-03-20T01:02:23.790Z,100325.56
2023-03-20T01:04:50.413Z,100321.25
2023-03-20T01:07:18.892Z,100309.06
2023-03-20T01:09:45.516Z,100304.00
2023-03-20T01:12:13.879Z,100300.94
2023-03-20T01:14:41.019Z,100294.44
2023-03-20T01:17:17.540Z,100276.09
2023-03-20T01:19:44.486Z,100275.34
2023-03-20T01:22:11.231Z,100261.06
2023-03-20T01:24:40.584Z,100245.50
2023-03-20T01:27:25.694Z,100247.41
2023-03-20T01:29:52.162Z,100223.72
2023-03-20T01:32:20.209Z,100231.94
2023-03-20T01:34:47.647Z,100226.59
2023-03-20T01:37:18.569Z,100207.88
2023-03-20T01:39:45.254Z,100204.56
2023-03-20T01:42:15.984Z,100204.66
2023-03-20T01:44:43.182Z,100192.19
2023-03-20T01:47:20.154Z,100181.03
2023-03-20T01:50:24.436Z,100178.69
2023-03-20T01:52:59.911Z,100173.09
2023-03-20T01:55:28.210Z,100161.09
2023-03-20T01:57:57.084Z,100156.09
2023-03-20T02:00:24.047Z,100144.31
2023-03-20T02:02:50.911Z,100146.91
2023-03-20T02:05:20.549Z,100143.25
2023-03-20T02:08:03.033Z,100133.53
2023-03-20T02:10:29.805Z,100129.97
2023-03-20T02:12:57.037Z,100124.81
2023-03-20T02:15:27.375Z,100117.09
2023-03-20T02:17:54.041Z,100116.03
2023-03-20T02:20:20.569Z,100106.06
2023-03-20T02:23:21.757Z,100097.72
2023-03-20T02:26:16.493Z,100092.97
2023-03-20T02:28:55.743Z,100088.56
2023-03-20T02:31:54.336Z,100096.00
2023-03-20T02:34:53.919Z,100094.09
2023-03-20T02:37:39.316Z,100085.63
2023-03-20T02:40:17.709Z,100088.16
2023-03-20T02:43:19.454Z,100083.22
2023-03-20T02:46:05.520Z,100087.00
2023-03-20T02:48:53.524Z,100086.66
2023-03-20T02:51:30.336Z,100087.00
2023-03-20T02:54:15.384Z,100083.00
2023-03-20T02:56:42.248Z,100090.25
2023-03-20T02:59:39.055Z,100077.59
2023-03-20T03:02:10.240Z,100078.16
2023-03-20T03:04:44.128Z,100075.50
2023-03-20T03:07:14.845Z,100073.53
2023-03-20T03:09:52.032Z,100086.78
2023-03-20T03:12:24.183Z,100084.53
2023-03-20T03:14:56.862Z,100072.00
2023-03-20T03:17:27.833Z,100075.66
2023-03-20T03:20:00.878Z,100062.16
2023-03-20T03:22:27.497Z,100056.88
2023-03-20T03:24:55.713Z,100048.56
2023-03-20T03:27:33.188Z,100036.31
2023-03-20T03:30:11.111Z,100038.38
2023-03-20T03:32:46.775Z,100037.47
2023-03-20T03:35:21.611Z,100025.38
2023-03-20T03:37:54.222Z,100018.38
2023-03-20T03:40:28.027Z,100015.88
2023-03-20T03:43:04.540Z,100015.72
2023-03-20T03:45:39.981Z,100013.66
2023-03-20T03:48:14.327Z,100006.34
2023-03-20T03:50:48.708Z,99998.09
2023-03-20T03:53:21.080Z,100000.59
2023-03-20T03:55:53.843Z,100000.78
2023-03-20T03:58:33.346Z,99996.66
2023-03-20T04:01:02.976Z,99990.84
2023-03-20T04:03:35.055Z,99990.84
2023-03-20T04:06:04.736Z,99993.84
2023-03-20T04:08:31.459Z,99996.09
2023-03-20T04:10:59.309Z,99990.09
2023-03-20T04:13:26.161Z,99985.56
2023-03-20T04:15:53.236Z,99991.22
2023-03-20T04:18:20.266Z,99975.97
2023-03-20T04:20:47.472Z,99977.09
2023-03-20T04:23:14.706Z,99972.94
2023-03-20T04:25:41.648Z,99967.44
2023-03-20T04:28:08.262Z,99987.50
2023-03-20T04:30:34.855Z,99972.91
2023-03-20T04:33:01.702Z,99976.13
2023-03-20T04:35:28.341Z,99970.97
2023-03-20T04:37:54.864Z,99977.78
2023-03-20T04:40:21.532Z,99980.44
2023-03-20T04:42:48.083Z,99970.75
2023-03-20T04:45:14.670Z,99968.69
2023-03-20T04:47:41.185Z,99970.31
2023-03-20T04:50:08.116Z,99976.63
2023-03-20T04:52:34.666Z,99978.69
2023-03-20T04:55:01.441Z,99983.69
2023-03-20T04:57:28.583Z,99974.25
2023-03-20T04:59:55.113Z,99983.84
2023-03-20T05:02:21.608Z,99986.13
2023-03-20T05:04:48.118Z,99988.84
2023-03-20T05:07:14.670Z,99995.63
2023-03-20T05:09:41.185Z,99994.56
2023-03-20T05:12:09.380Z,99993.78
2023-03-20T05:14:36.081Z,99991.06
2023-03-20T05:17:02.785Z,99998.84
2023-03-20T05:19:29.437Z,99989.13
2023-03-20T05:21:56.050Z,99988.72
2023-03-20T05:24:22.603Z,100003.28
2023-03-20T05:26:49.301Z,100013.94
2023-03-20T05:29:16.099Z,100009.88
2023-03-20T05:31:42.594Z,100016.59
2023-03-20T05:34:09.156Z,100023.75
2023-03-20T05:36:36.800Z,100016.31
2023-03-20T05:39:04.280Z,100015.34
2023-03-20T05:41:31.137Z,100011.41
2023-03-20T05:43:57.726Z,100018.22
2023-03-20T05:46:24.492Z,100027.53
2023-03-20T05:48:51.203Z,100023.88
2023-03-20T05:51:17.757Z,100021.44
2023-03-20T05:53:44.284Z,100015.16
2023-03-20T05:56:10.971Z,100007.66
2023-03-20T05:58:37.616Z,100005.09
2023-03-20T06:01:04.908Z,100010.22
2023-03-20T06:03:31.457Z,100011.09
2023-03-20T06:05:57.996Z,100001.59
2023-03-20T06:08:24.510Z,100008.53
2023-03-20T06:10:51.778Z,100000.28
2023-03-20T06:13:18.581Z,99996.03
2023-03-20T06:15:45.340Z,99996.88
2023-03-20T06:18:11.866Z,100003.75
2023-03-20T06:20:38.422Z,100005.28
2023-03-20T06:23:05.182Z,100015.88
2023-03-20T06:25:31.781Z,100023.53
2023-03-20T06:27:58.327Z,100040.31
2023-03-20T06:30:24.883Z,100045.66
2023-03-20T06:32:51.423Z,100053.41
2023-03-20T06:35:18.671Z,100065.56
2023-03-20T06:37:45.264Z,100073.13
2023-03-20T06:40:12.126Z,100077.78
2023-03-20T06:42:38.797Z,100092.50
2023-03-20T06:45:06.872Z,100101.00
2023-03-20T06:47:33.588Z,100100.97
2023-03-20T06:50:00.231Z,100111.25
2023-03-20T06:52:26.738Z,100115.38
2023-03-20T06:54:53.362Z,100125.75
2023-03-20T06:57:20.157Z,100144.38
2023-03-20T06:59:46.749Z,100174.13
2023-03-20T07:02:13.490Z,100183.75
2023-03-20T07:04:41.201Z,100199.53
2023-03-20T07:07:08.309Z,100215.13
2023-03-20T07:09:35.206Z,100211.94
2023-03-20T07:12:02.480Z,100219.09
2023-03-20T07:14:29.036Z,100234.72
2023-03-20T07:16:56.432Z,100237.41
2023-03-20T07:19:23.903Z,100244.22
2023-03-20T07:21:56.491Z,100253.56
2023-03-20T07:24:23.203Z,100268.72
2023-03-20T07:26:49.721Z,100298.19
2023-03-20T07:29:16.628Z,100310.72
2023-03-20T07:31:43.249Z,100311.97
2023-03-20T07:34:11.086Z,100306.72
2023-03-20T07:36:37.874Z,100317.84
2023-03-20T07:39:04.952Z,100345.47
2023-03-20T07:41:31.535Z,100365.47
2023-03-20T07:43:58.076Z,100370.91
2023-03-20T07:46:25.684Z,100378.28
2023-03-20T07:48:52.319Z,100388.88
2023-03-20T07:51:18.866Z,100416.94
2023-03-20T07:53:45.402Z,100432.47
2023-03-20T07:56:12.524Z,100435.97
2023-03-20T07:58:39.183Z,100435.44
2023-03-20T08:01:05.926Z,100468.31
2023-03-20T08:03:32.746Z,100469.81
2023-03-20T08:05:59.944Z,100472.63
2023-03-20T08:08:26.756Z,100477.34
2023-03-20T08:10:53.528Z,100494.31
2023-03-20T08:13:20.089Z,100511.59
2023-03-20T08:15:47.269Z,100506.69
2023-03-20T08:18:13.938Z,100514.44
2023-03-20T08:20:40.609Z,100520.03
2023-03-20T08:23:07.895Z,100534.50
2023-03-20T08:25:35.222Z,100539.97
2023-03-20T08:28:02.148Z,100528.03
2023-03-20T08:30:29.043Z,100539.94
2023-03-20T08:32:56.042Z,100538.16
2023-03-20T08:35:45.600Z,100525.91
2023-03-20T08:38:15.711Z,100531.38
2023-03-20T08:40:42.950Z,100525.81
2023-03-20T08:43:09.582Z,100525.19
2023-03-20T08:45:36.320Z,100531.59
2023-03-20T08:48:03.054Z,100524.03
2023-03-20T08:50:29.957Z,100523.19
2023-03-20T08:52:56.541Z,100535.03
2023-03-20T08:55:23.147Z,100532.47
2023-03-20T08:57:49.870Z,100527.88
2023-03-20T09:00:17.280Z,100528.94
2023-03-20T09:02:44.063Z,100522.53
2023-03-20T09:05:11.228Z,100523.66
2023-03-20T09:07:38.086Z,100533.09
2023-03-20T09:10:06.069Z,100523.19
2023-03-20T09:12:32.817Z,100519.97
2023-03-20T09:14:59.900Z,100513.66
2023-03-20T09:17:26.672Z,100514.91
2023-03-20T09:19:53.247Z,100513.59
2023-03-20T09:22:19.908Z,100514.28
2023-03-20T09:24:47.533Z,100522.19
2023-03-20T09:27:14.145Z,100518.22
2023-03-20T09:29:41.556Z,100528.88
2023-03-20T09:32:11.639Z,100513.78
2023-03-20T09:34:38.760Z,100512.28
2023-03-20T09:37:06.647Z,100509.22
2023-03-20T09:39:34.287Z,100517.97
2023-03-20T09:42:15.528Z,100519.19
2023-03-20T09:44:50.577Z,100508.09
2023-03-20T09:47:25.662Z,100511.16
2023-03-20T09:50:23.763Z,100508.66
2023-03-20T09:53:03.436Z,100507.66
2023-03-20T09:55:36.591Z,100501.53
2023-03-20T09:58:13.448Z,100494.84
2023-03-20T10:00:42.884Z,100489.66
2023-03-20T10:03:20.956Z,100481.91
2023-03-20T10:05:57.944Z,100476.28
2023-03-20T10:08:37.757Z,100483.34
2023-03-20T10:11:10.268Z,100480.56
2023-03-20T10:14:07.892Z,100477.38
2023-03-20T10:16:52.965Z,100480.69
2023-03-20T10:19:53.590Z,100480.03
2023-03-20T10:22:32.877Z,100469.31
2023-03-20T10:25:11.116Z,100471.88
2023-03-20T10:27:44.306Z,100469.00
2023-03-20T10:30:22.707Z,100465.38
2023-03-20T10:33:07.870Z,100470.31
2023-03-20T10:36:01.864Z,100465.97
2023-03-20T10:38:28.382Z,100457.47
2023-03-20T10:40:58.168Z,100460.69
2023-03-20T10:43:29.778Z,100459.72
2023-03-20T10:46:13.412Z,100456.44
2023-03-20T10:49:12.156Z,100451.97
2023-03-20T10:51:52.368Z,100447.44
2023-03-20T10:54:24.748Z,100443.88
2023-03-20T10:56:56.369Z,100440.16
2023-03-20T10:59:37.669Z,100439.97
2023-03-20T11:02:13.436Z,100439.97
2023-03-20T11:04:40.438Z,100431.56
2023-03-20T11:07:23.874Z,100433.63
2023-03-20T11:10:05.717Z,100441.53
2023-03-20T11:12:38.228Z,100428.44
2023-03-20T11:15:21.512Z,100422.47
2023-03-20T11:17:57.271Z,100418.84
2023-03-20T11:20:25.852Z,100407.38
2023-03-20T11:22:59.806Z,100409.69
2023-03-20T11:25:35.261Z,100399.06
2023-03-20T11:28:36.977Z,100401.19
2023-03-20T11:31:18.026Z,100396.84
2023-03-20T11:33:50.993Z,100388.88
2023-03-20T11:36:22.974Z,100384.28
2023-03-20T11:38:51.110Z,100380.81
2023-03-20T11:41:22.494Z,100383.41
2023-03-20T11:43:49.081Z,100378.28
2023-03-20T11:46:15.808Z,100374.31
2023-03-20T11:48:45.804Z,100367.56
2023-03-20T11:51:19.787Z,100361.22
2023-03-20T11:53:49.109Z,100366.31
2023-03-20T11:56:23.872Z,100362.22
2023-03-20T11:59:00.093Z,100358.75
2023-03-20T12:01:28.384Z,100351.09
2023-03-20T12:03:58.006Z,100353.22
2023-03-20T12:06:40.454Z,100350.59
2023-03-20T12:09:16.076Z,100352.53
2023-03-20T12:11:52.475Z,100348.09
2023-03-20T12:14:35.847Z,100348.16
2023-03-20T12:17:38.475Z,100342.25
2023-03-20T12:20:34.589Z,100334.53
2023-03-20T12:23:13.352Z,100325.19
2023-03-20T12:26:02.209Z,100321.25
2023-03-20T12:28:47.170Z,100308.59
2023-03-20T12:31:45.700Z,100314.63
2023-03-20T12:34:47.670Z,100311.69
2023-03-20T12:37:18.290Z,100295.06
2023-03-20T12:39:55.519Z,100287.81
2023-03-20T12:42:55.612Z,100295.69
2023-03-20T12:45:26.230Z,100282.09
2023-03-20T12:48:07.764Z,100280.03
2023-03-20T12:50:37.348Z,100276.16
2023-03-20T12:53:35.089Z,100276.22
2023-03-20T12:56:12.244Z,100278.00
2023-03-20T12:59:02.824Z,100269.41
2023-03-20T13:01:32.705Z,100265.09
2023-03-20T13:04:11.374Z,100259.00
2023-03-20T13:06:53.187Z,100255.13
2023-03-20T13:09:36.409Z,100243.38
2023-03-20T13:12:18.238Z,100232.78
2023-03-20T13:15:14.556Z,100235.56
2023-03-20T13:17:48.561Z,100231.34
2023-03-20T13:20:21.355Z,100236.91
2023-03-20T13:22:51.003Z,100228.69
2023-03-20T13:25:39.973Z,100234.19
2023-03-20T13:28:35.940Z,100231.47
2023-03-20T13:31:14.776Z,100228.84
2023-03-20T13:33:44.273Z,100221.81
2023-03-20T13:36:32.011Z,100233.25
2023-03-20T13:39:33.852Z,100227.25
2023-03-20T13:42:02.777Z,100220.84
2023-03-20T13:44:32.974Z,100213.09
2023-03-20T13:47:10.717Z,100210.78
2023-03-20T13:50:00.564Z,100219.56
2023-03-20T13:52:38.667Z,100207.13
2023-03-20T13:55:39.808Z,100198.56
2023-03-20T13:58:28.551Z,100198.63
2023-03-20T14:01:16.163Z,100199.50
2023-03-20T14:03:46.254Z,100190.13
2023-03-20T14:06:30.884Z,100190.13
2023-03-20T14:08:58.990Z,100199.81
2023-03-20T14:11:27.334Z,100188.94
2023-03-20T14:14:01.025Z,100188.94
2023-03-20T14:16:29.033Z,100184.03
2023-03-20T14:19:17.233Z,100180.63
2023-03-20T14:21:54.524Z,100180.88
2023-03-20T14:24:23.651Z,100178.50
2023-03-20T14:26:56.588Z,100170.09
2023-03-20T14:29:32.831Z,100170.91
2023-03-20T14:32:19.612Z,100162.84
2023-03-20T14:35:07.792Z,100159.59
2023-03-20T14:37:38.390Z,100150.88
2023-03-20T14:40:05.374Z,100149.00
2023-03-20T14:42:55.478Z,100138.19
2023-03-20T14:45:31.841Z,100143.47
2023-03-20T14:48:02.017Z,100140.00
2023-03-20T14:50:47.179Z,100135.75
2023-03-20T14:53:18.512Z,100135.94
2023-03-20T14:55:51.265Z,100130.81
2023-03-20T14:58:43.196Z,100135.97
2023-03-20T15:01:17.130Z,100143.59
2023-03-20T15:03:50.713Z,100138.44
2023-03-20T15:06:21.125Z,100136.75
2023-03-20T15:08:51.932Z,100142.06
2023-03-20T15:11:20.907Z,100138.50
2023-03-20T15:13:49.158Z,100138.75
2023-03-20T15:16:16.857Z,100135.38
2023-03-20T15:18:50.945Z,100127.50
2023-03-20T15:21:38.970Z,100131.69
2023-03-20T15:24:05.638Z,100125.81
2023-03-20T15:26:34.490Z,100136.31
2023-03-20T15:29:05.452Z,100133.78
2023-03-20T15:31:34.868Z,100134.03
2023-03-20T15:34:06.635Z,100135.91
2023-03-20T15:36:37.007Z,100128.09
2023-03-20T15:39:15.382Z,100127.97
2023-03-20T15:41:52.249Z,100127.16
2023-03-20T15:44:36.438Z,100128.88
2023-03-20T15:47:11.902Z,100113.41
2023-03-20T15:49:43.852Z,100118.53
2023-03-20T15:52:19.563Z,100114.22
2023-03-20T15:54:48.100Z,100116.84
2023-03-20T15:57:40.250Z,100112.50
2023-03-20T16:00:13.307Z,100105.63
2023-03-20T16:02:41.337Z,100112.44
2023-03-20T16:05:14.200Z,100109.16
2023-03-20T16:07:40.957Z,100103.09
2023-03-20T16:10:19.456Z,100114.34
2023-03-20T16:12:49.565Z,100105.59
2023-03-20T16:15:18.690Z,100107.25
2023-03-20T16:17:46.082Z,100109.09
2023-03-20T16:20:17.153Z,100111.69
2023-03-20T16:22:45.539Z,100099.59
2023-03-20T16:25:18.168Z,100097.13
2023-03-20T16:27:49.396Z,100098.09
2023-03-20T16:30:24.552Z,100089.00
2023-03-20T16:32:58.482Z,100086.63
2023-03-20T16:35:30.034Z,100090.00
2023-03-20T16:38:00.625Z,100089.91
2023-03-20T16:40:37.718Z,100082.50
2023-03-20T16:43:14.846Z,100074.78
2023-03-20T16:45:45.858Z,100075.88
2023-03-20T16:48:13.067Z,100076.91
2023-03-20T16:50:44.603Z,100072.00
2023-03-20T16:53:17.144Z,100075.34
2023-03-20T16:55:49.821Z,100080.41
2023-03-20T16:58:21.022Z,100081.06
2023-03-20T17:00:52.808Z,100077.94
2023-03-20T17:03:26.719Z,100081.25
2023-03-20T17:06:06.232Z,100086.22
2023-03-20T17:08:41.379Z,100091.06
2023-03-20T17:11:14.596Z,100095.28
2023-03-20T17:13:41.903Z,100097.19
2023-03-20T17:16:17.579Z,100090.47
2023-03-20T17:18:58.065Z,100090.19
2023-03-20T17:21:24.871Z,100090.09
2023-03-20T17:23:51.540Z,100089.91
2023-03-20T17:26:18.079Z,100092.22
2023-03-20T17:28:45.433Z,100092.97
2023-03-20T17:31:17.498Z,100095.56
2023-03-20T17:33:45.604Z,100095.56
2023-03-20T17:36:25.744Z,100091.41
2023-03-20T17:38:53.036Z,100098.09
2023-03-20T17:41:20.780Z,100103.09
2023-03-20T17:43:47.666Z,100105.56
2023-03-20T17:46:24.367Z,100114.06
2023-03-20T17:48:52.977Z,100106.03
2023-03-20T17:51:19.553Z,100114.56
2023-03-20T17:53:46.758Z,100109.50
2023-03-20T17:56:15.783Z,100108.44
2023-03-20T17:58:44.752Z,100120.22
2023-03-20T18:01:13.100Z,100123.41
2023-03-20T18:03:40.764Z,100123.22
2023-03-20T18:06:07.945Z,100120.56
2023-03-20T18:08:34.517Z,100125.50
2023-03-20T18:11:01.034Z,100127.16
2023-03-20T18:13:28.610Z,100121.81
2023-03-20T18:15:58.114Z,100126.06
2023-03-20T18:18:25.321Z,100133.72
2023-03-20T18:20:53.008Z,100121.63
2023-03-20T18:23:19.554Z,100123.19
2023-03-20T18:25:46.138Z,100121.41
2023-03-20T18:28:20.463Z,100122.22
2023-03-20T18:30:49.037Z,100124.63
2023-03-20T18:33:16.230Z,100122.72
2023-03-20T18:35:43.041Z,100125.16
2023-03-20T18:38:12.316Z,100131.91
2023-03-20T18:40:39.195Z,100130.09
2023-03-20T18:43:06.122Z,100129.19
2023-03-20T18:45:32.696Z,100122.28
2023-03-20T18:47:59.238Z,100126.41
2023-03-20T18:50:25.778Z,100124.63
2023-03-20T18:52:54.097Z,100127.09
2023-03-20T18:55:23.098Z,100125.28
2023-03-20T18:57:50.970Z,100133.75
2023-03-20T19:00:39.983Z,100132.63
2023-03-20T19:03:08.272Z,100132.53
2023-03-20T19:05:34.926Z,100132.38
2023-03-20T19:08:03.298Z,100135.78
2023-03-20T19:10:33.015Z,100133.03
2023-03-20T19:12:59.804Z,100138.94
2023-03-20T19:15:28.652Z,100134.56
2023-03-20T19:17:56.049Z,100133.56
2023-03-20T19:20:40.499Z,100136.81
2023-03-20T19:23:09.534Z,100141.03
2023-03-20T19:25:37.620Z,100137.63
2023-03-20T19:28:05.111Z,100144.53
2023-03-20T19:30:36.541Z,100147.88
2023-03-20T19:33:03.886Z,100144.34
2023-03-20T19:35:54.611Z,100138.41
2023-03-20T19:38:21.351Z,100140.75
2023-03-20T19:40:49.883Z,100137.19
2023-03-20T19:43:16.416Z,100141.56
2023-03-20T19:45:44.295Z,100132.09
2023-03-20T19:48:17.254Z,100131.94
2023-03-20T19:50:49.489Z,100125.88
2023-03-20T19:53:24.922Z,100133.47
2023-03-20T19:55:53.185Z,100129.13
2023-03-20T19:58:21.118Z,100127.44
2023-03-20T20:00:57.661Z,100135.84
2023-03-20T20:03:25.973Z,100128.28
2023-03-20T20:05:53.419Z,100134.31
2023-03-20T20:08:30.927Z,100135.25
2023-03-20T20:11:06.409Z,100129.19
2023-03-20T20:13:47.034Z,100135.09
2023-03-20T20:16:23.643Z,100129.13
2023-03-20T20:18:50.205Z,100131.66
2023-03-20T20:22:09.848Z,100135.78
2023-03-20T20:24:03.533Z,100129.78
2023-03-20T20:26:31.269Z,100133.91
2023-03-20T20:29:01.405Z,100150.09
2023-03-20T20:31:31.662Z,100149.91
2023-03-20T20:34:36.780Z,100143.88
2023-03-20T20:39:31.674Z,100131.00
2023-03-20T20:41:58.233Z,100134.28
2023-03-20T20:44:24.795Z,100140.22
2023-03-20T20:46:51.659Z,100138.47
2023-03-20T20:49:20.060Z,100139.31
2023-03-20T20:51:48.190Z,100139.31
2023-03-20T20:54:14.883Z,100134.06
2023-03-20T20:56:41.478Z,100147.69
2023-03-20T20:59:08.339Z,100133.97
2023-03-20T21:01:35.124Z,100142.53
2023-03-20T21:04:02.424Z,100132.94
2023-03-20T21:07:03.564Z,100134.66
2023-03-20T21:09:19.666Z,100135.34
2023-03-20T21:11:46.768Z,100130.19
2023-03-20T21:14:14.383Z,100127.53
2023-03-20T21:16:41.042Z,100127.41
2023-03-20T21:19:07.797Z,100118.78
2023-03-20T21:21:35.772Z,100123.84
2023-03-20T21:24:02.761Z,100123.75
2023-03-20T21:26:29.407Z,100118.53
2023-03-20T21:28:56.657Z,100126.19
2023-03-20T21:31:30.303Z,100132.06
2023-03-20T21:33:58.040Z,100128.59
2023-03-20T21:36:25.610Z,100120.78
2023-03-20T21:39:09.445Z,100121.66
2023-03-20T21:41:37.896Z,100112.16
2023-03-20T21:44:06.429Z,100108.66
2023-03-20T22:03:34.876Z,100094.47
2023-03-20T22:06:59.048Z,100087.53
2023-03-20T22:15:23.316Z,100079.72
2023-03-20T22:23:51.649Z,100077.47
2023-03-20T22:26:28.501Z,100090.97
2023-03-20T22:35:04.264Z,100089.06
2023-03-20T22:45:10.373Z,100063.91
2023-03-20T22:47:37.722Z,100068.84
2023-03-20T22:50:05.386Z,100074.66
2023-03-20T22:52:45.892Z,100071.16
2023-03-20T22:55:14.812Z,100072.97
2023-03-20T22:57:50.076Z,100060.63
2023-03-20T23:00:22.827Z,100057.78
2023-03-20T23:02:49.891Z,100050.13
2023-03-20T23:05:16.625Z,100051.44
2023-03-20T23:07:43.250Z,100046.13
2023-03-20T23:10:10.910Z,100032.41
2023-03-20T23:12:38.260Z,100028.88
2023-03-20T23:15:06.076Z,100031.41
2023-03-20T23:17:33.200Z,100021.91
2023-03-20T23:20:10.976Z,100023.63
2023-03-20T23:22:39.005Z,100015.84
2023-03-20T23:25:18.288Z,100019.91
2023-03-20T23:27:50.784Z,100012.09
2023-03-20T23:30:17.814Z,100013.69
2023-03-20T23:32:44.490Z,100011.06
2023-03-20T23:35:11.516Z,100007.69
2023-03-20T23:37:38.079Z,99998.31
2023-03-20T23:40:05.360Z,99993.00
2023-03-20T23:42:31.890Z,99985.38
2023-03-20T23:45:07.107Z,99988.69
2023-03-20T23:47:44.810Z,99986.88
2023-03-20T23:50:20.711Z,99977.41
2023-03-20T23:53:01.116Z,99974.69
2023-03-20T23:55:35.478Z,99970.34
2023-03-20T23:58:02.468Z,99969.19
